sensor_id;sensor_type;location;lat;lon;timestamp;P1;durP1;ratioP1;P2;durP2;ratioP2
71296;SDS011;59082;50.658;4.608;2024-01-11T00:01:57;17.58;;;9.73;;
71296;SDS011;59082;50.658;4.608;2024-01-11T00:04:23;18.43;;;12.90;;
71296;SDS011;59082;50.658;4.608;2024-01-11T00:06:49;17.33;;;8.73;;
71296;SDS011;59082;50.658;4.608;2024-01-11T00:09:14;16.60;;;11.40;;
71296;SDS011;59082;50.658;4.608;2024-01-11T00:11:40;17.83;;;11.33;;
71296;SDS011;59082;50.658;4.608;2024-01-11T00:14:05;19.77;;;11.97;;
71296;SDS011;59082;50.658;4.608;2024-01-11T00:16:30;20.33;;;11.47;;
71296;SDS011;59082;50.658;4.608;2024-01-11T00:18:56;20.30;;;11.13;;
71296;SDS011;59082;50.658;4.608;2024-01-11T00:21:21;15.77;;;8.43;;
71296;SDS011;59082;50.658;4.608;2024-01-11T00:23:46;22.48;;;11.60;;
71296;SDS011;59082;50.658;4.608;2024-01-11T00:26:12;18.13;;;9.47;;
71296;SDS011;59082;50.658;4.608;2024-01-11T00:28:37;18.27;;;9.50;;
71296;SDS011;59082;50.658;4.608;2024-01-11T00:31:03;18.47;;;9.83;;
71296;SDS011;59082;50.658;4.608;2024-01-11T00:33:28;18.80;;;9.95;;
71296;SDS011;59082;50.658;4.608;2024-01-11T00:35:53;16.70;;;9.33;;
71296;SDS011;59082;50.658;4.608;2024-01-11T00:38:19;16.20;;;9.60;;
71296;SDS011;59082;50.658;4.608;2024-01-11T00:40:44;18.00;;;9.50;;
71296;SDS011;59082;50.658;4.608;2024-01-11T00:43:10;21.27;;;10.80;;
71296;SDS011;59082;50.658;4.608;2024-01-11T00:45:35;17.80;;;9.38;;
71296;SDS011;59082;50.658;4.608;2024-01-11T00:48:00;14.50;;;8.52;;
71296;SDS011;59082;50.658;4.608;2024-01-11T00:50:26;18.17;;;9.00;;
71296;SDS011;59082;50.658;4.608;2024-01-11T00:52:51;13.23;;;8.67;;
71296;SDS011;59082;50.658;4.608;2024-01-11T00:55:16;19.30;;;10.83;;
71296;SDS011;59082;50.658;4.608;2024-01-11T00:57:42;16.07;;;9.27;;
71296;SDS011;59082;50.658;4.608;2024-01-11T01:00:07;17.17;;;9.33;;
71296;SDS011;59082;50.658;4.608;2024-01-11T01:02:33;16.20;;;10.27;;
71296;SDS011;59082;50.658;4.608;2024-01-11T01:04:58;18.13;;;11.17;;
71296;SDS011;59082;50.658;4.608;2024-01-11T01:07:23;17.23;;;9.33;;
71296;SDS011;59082;50.658;4.608;2024-01-11T01:09:49;19.90;;;10.97;;
71296;SDS011;59082;50.658;4.608;2024-01-11T01:12:15;15.90;;;9.23;;
71296;SDS011;59082;50.658;4.608;2024-01-11T01:14:40;18.47;;;10.73;;
71296;SDS011;59082;50.658;4.608;2024-01-11T01:17:06;13.73;;;9.33;;
71296;SDS011;59082;50.658;4.608;2024-01-11T01:19:31;16.40;;;9.83;;
71296;SDS011;59082;50.658;4.608;2024-01-11T01:21:57;17.05;;;9.73;;
71296;SDS011;59082;50.658;4.608;2024-01-11T01:24:22;18.53;;;8.60;;
71296;SDS011;59082;50.658;4.608;2024-01-11T01:26:48;14.50;;;9.07;;
71296;SDS011;59082;50.658;4.608;2024-01-11T01:29:13;16.90;;;8.23;;
71296;SDS011;59082;50.658;4.608;2024-01-11T01:31:39;16.75;;;9.93;;
71296;SDS011;59082;50.658;4.608;2024-01-11T01:34:04;18.90;;;9.77;;
71296;SDS011;59082;50.658;4.608;2024-01-11T01:36:30;20.57;;;12.53;;
71296;SDS011;59082;50.658;4.608;2024-01-11T01:38:55;13.57;;;8.63;;
71296;SDS011;59082;50.658;4.608;2024-01-11T01:41:20;13.77;;;10.00;;
71296;SDS011;59082;50.658;4.608;2024-01-11T01:43:46;18.67;;;8.77;;
71296;SDS011;59082;50.658;4.608;2024-01-11T01:46:12;14.00;;;9.15;;
71296;SDS011;59082;50.658;4.608;2024-01-11T01:48:42;14.05;;;8.43;;
71296;SDS011;59082;50.658;4.608;2024-01-11T01:51:07;19.13;;;9.30;;
71296;SDS011;59082;50.658;4.608;2024-01-11T01:53:32;12.18;;;7.05;;
71296;SDS011;59082;50.658;4.608;2024-01-11T01:55:58;16.77;;;10.90;;
71296;SDS011;59082;50.658;4.608;2024-01-11T01:58:23;17.87;;;10.70;;
71296;SDS011;59082;50.658;4.608;2024-01-11T02:00:49;23.23;;;13.23;;
71296;SDS011;59082;50.658;4.608;2024-01-11T02:03:15;17.88;;;12.15;;
71296;SDS011;59082;50.658;4.608;2024-01-11T02:05:41;14.50;;;9.40;;
71296;SDS011;59082;50.658;4.608;2024-01-11T02:08:07;15.30;;;8.93;;
71296;SDS011;59082;50.658;4.608;2024-01-11T02:10:33;14.13;;;9.27;;
71296;SDS011;59082;50.658;4.608;2024-01-11T02:13:00;19.67;;;8.88;;
71296;SDS011;59082;50.658;4.608;2024-01-11T02:15:26;17.57;;;10.13;;
71296;SDS011;59082;50.658;4.608;2024-01-11T02:17:51;12.40;;;7.13;;
71296;SDS011;59082;50.658;4.608;2024-01-11T02:20:16;15.45;;;9.80;;
71296;SDS011;59082;50.658;4.608;2024-01-11T02:22:42;17.60;;;11.63;;
71296;SDS011;59082;50.658;4.608;2024-01-11T02:25:11;15.45;;;8.80;;
71296;SDS011;59082;50.658;4.608;2024-01-11T02:27:49;15.63;;;8.67;;
71296;SDS011;59082;50.658;4.608;2024-01-11T02:30:15;21.03;;;8.93;;
71296;SDS011;59082;50.658;4.608;2024-01-11T02:32:40;16.27;;;9.70;;
71296;SDS011;59082;50.658;4.608;2024-01-11T02:35:06;21.33;;;11.80;;
71296;SDS011;59082;50.658;4.608;2024-01-11T02:37:32;20.87;;;11.17;;
71296;SDS011;59082;50.658;4.608;2024-01-11T02:39:58;18.33;;;10.30;;
71296;SDS011;59082;50.658;4.608;2024-01-11T02:42:23;19.93;;;11.73;;
71296;SDS011;59082;50.658;4.608;2024-01-11T02:44:48;15.77;;;9.60;;
71296;SDS011;59082;50.658;4.608;2024-01-11T02:47:14;19.70;;;10.43;;
71296;SDS011;59082;50.658;4.608;2024-01-11T02:49:39;17.42;;;10.27;;
71296;SDS011;59082;50.658;4.608;2024-01-11T02:52:04;15.00;;;8.65;;
71296;SDS011;59082;50.658;4.608;2024-01-11T02:54:30;17.07;;;9.83;;
71296;SDS011;59082;50.658;4.608;2024-01-11T02:56:55;11.43;;;9.30;;
71296;SDS011;59082;50.658;4.608;2024-01-11T02:59:22;20.95;;;11.27;;
71296;SDS011;59082;50.658;4.608;2024-01-11T03:01:49;16.50;;;10.03;;
71296;SDS011;59082;50.658;4.608;2024-01-11T03:04:14;24.20;;;11.23;;
71296;SDS011;59082;50.658;4.608;2024-01-11T03:06:39;19.17;;;9.30;;
71296;SDS011;59082;50.658;4.608;2024-01-11T03:09:05;17.67;;;9.77;;
71296;SDS011;59082;50.658;4.608;2024-01-11T03:11:30;16.97;;;10.40;;
71296;SDS011;59082;50.658;4.608;2024-01-11T03:13:55;15.23;;;9.33;;
71296;SDS011;59082;50.658;4.608;2024-01-11T03:16:21;21.83;;;10.70;;
71296;SDS011;59082;50.658;4.608;2024-01-11T03:18:46;21.80;;;10.93;;
71296;SDS011;59082;50.658;4.608;2024-01-11T03:21:12;19.43;;;9.97;;
71296;SDS011;59082;50.658;4.608;2024-01-11T03:23:37;12.93;;;9.90;;
71296;SDS011;59082;50.658;4.608;2024-01-11T03:26:02;17.33;;;10.63;;
71296;SDS011;59082;50.658;4.608;2024-01-11T03:28:28;18.53;;;9.93;;
71296;SDS011;59082;50.658;4.608;2024-01-11T03:30:53;21.00;;;10.70;;
71296;SDS011;59082;50.658;4.608;2024-01-11T03:33:18;17.65;;;10.18;;
71296;SDS011;59082;50.658;4.608;2024-01-11T03:35:44;17.17;;;9.98;;
71296;SDS011;59082;50.658;4.608;2024-01-11T03:38:10;13.90;;;9.77;;
71296;SDS011;59082;50.658;4.608;2024-01-11T03:40:35;18.55;;;9.18;;
71296;SDS011;59082;50.658;4.608;2024-01-11T03:43:01;13.47;;;8.87;;
71296;SDS011;59082;50.658;4.608;2024-01-11T03:45:27;19.30;;;11.70;;
71296;SDS011;59082;50.658;4.608;2024-01-11T03:47:52;17.15;;;10.55;;
71296;SDS011;59082;50.658;4.608;2024-01-11T03:50:18;18.33;;;9.77;;
71296;SDS011;59082;50.658;4.608;2024-01-11T03:52:44;17.17;;;10.38;;
71296;SDS011;59082;50.658;4.608;2024-01-11T03:55:10;13.83;;;9.10;;
71296;SDS011;59082;50.658;4.608;2024-01-11T03:57:35;17.10;;;9.20;;
71296;SDS011;59082;50.658;4.608;2024-01-11T04:00:01;18.27;;;9.48;;
71296;SDS011;59082;50.658;4.608;2024-01-11T04:02:26;18.88;;;11.02;;
71296;SDS011;59082;50.658;4.608;2024-01-11T04:04:51;16.13;;;10.37;;
71296;SDS011;59082;50.658;4.608;2024-01-11T04:07:18;16.48;;;9.20;;
71296;SDS011;59082;50.658;4.608;2024-01-11T04:09:44;19.13;;;9.70;;
71296;SDS011;59082;50.658;4.608;2024-01-11T04:12:09;15.70;;;9.90;;
71296;SDS011;59082;50.658;4.608;2024-01-11T04:14:39;15.75;;;8.90;;
71296;SDS011;59082;50.658;4.608;2024-01-11T04:17:07;13.77;;;10.55;;
71296;SDS011;59082;50.658;4.608;2024-01-11T04:19:32;19.47;;;9.83;;
71296;SDS011;59082;50.658;4.608;2024-01-11T04:21:57;13.98;;;9.32;;
71296;SDS011;59082;50.658;4.608;2024-01-11T04:24:23;18.73;;;10.57;;
71296;SDS011;59082;50.658;4.608;2024-01-11T04:26:48;17.87;;;11.20;;
71296;SDS011;59082;50.658;4.608;2024-01-11T04:29:13;15.17;;;8.80;;
71296;SDS011;59082;50.658;4.608;2024-01-11T04:31:39;15.73;;;9.47;;
71296;SDS011;59082;50.658;4.608;2024-01-11T04:34:04;13.20;;;9.77;;
71296;SDS011;59082;50.658;4.608;2024-01-11T04:36:30;16.60;;;9.60;;
71296;SDS011;59082;50.658;4.608;2024-01-11T04:38:55;17.05;;;10.73;;
71296;SDS011;59082;50.658;4.608;2024-01-11T04:41:23;19.45;;;11.50;;
71296;SDS011;59082;50.658;4.608;2024-01-11T04:43:49;16.30;;;8.70;;
71296;SDS011;59082;50.658;4.608;2024-01-11T04:46:16;14.98;;;9.25;;
71296;SDS011;59082;50.658;4.608;2024-01-11T04:48:41;14.30;;;8.07;;
71296;SDS011;59082;50.658;4.608;2024-01-11T04:51:07;12.38;;;8.38;;
71296;SDS011;59082;50.658;4.608;2024-01-11T04:53:32;12.63;;;9.13;;
71296;SDS011;59082;50.658;4.608;2024-01-11T04:55:57;14.23;;;10.13;;
71296;SDS011;59082;50.658;4.608;2024-01-11T04:58:23;21.97;;;10.27;;
71296;SDS011;59082;50.658;4.608;2024-01-11T05:00:48;17.13;;;9.47;;
71296;SDS011;59082;50.658;4.608;2024-01-11T05:03:14;14.90;;;9.00;;
71296;SDS011;59082;50.658;4.608;2024-01-11T05:05:39;15.30;;;10.65;;
71296;SDS011;59082;50.658;4.608;2024-01-11T05:08:04;16.30;;;9.97;;
71296;SDS011;59082;50.658;4.608;2024-01-11T05:10:30;14.77;;;8.27;;
71296;SDS011;59082;50.658;4.608;2024-01-11T05:12:55;11.33;;;8.67;;
71296;SDS011;59082;50.658;4.608;2024-01-11T05:15:21;15.13;;;8.30;;
71296;SDS011;59082;50.658;4.608;2024-01-11T05:17:46;18.35;;;10.95;;
71296;SDS011;59082;50.658;4.608;2024-01-11T05:20:12;17.57;;;12.23;;
71296;SDS011;59082;50.658;4.608;2024-01-11T05:22:37;13.53;;;9.27;;
71296;SDS011;59082;50.658;4.608;2024-01-11T05:25:02;15.90;;;8.63;;
71296;SDS011;59082;50.658;4.608;2024-01-11T05:27:28;17.27;;;10.33;;
71296;SDS011;59082;50.658;4.608;2024-01-11T05:29:53;18.23;;;10.13;;
71296;SDS011;59082;50.658;4.608;2024-01-11T05:32:18;17.83;;;11.43;;
71296;SDS011;59082;50.658;4.608;2024-01-11T05:34:44;16.83;;;9.88;;
71296;SDS011;59082;50.658;4.608;2024-01-11T05:37:09;16.38;;;8.65;;
71296;SDS011;59082;50.658;4.608;2024-01-11T05:39:34;15.47;;;9.67;;
71296;SDS011;59082;50.658;4.608;2024-01-11T05:42:00;18.33;;;10.83;;
71296;SDS011;59082;50.658;4.608;2024-01-11T05:44:25;18.70;;;10.83;;
71296;SDS011;59082;50.658;4.608;2024-01-11T05:46:51;15.93;;;10.30;;
71296;SDS011;59082;50.658;4.608;2024-01-11T05:49:16;20.13;;;9.60;;
71296;SDS011;59082;50.658;4.608;2024-01-11T05:51:41;20.02;;;10.80;;
71296;SDS011;59082;50.658;4.608;2024-01-11T05:54:07;14.90;;;10.30;;
71296;SDS011;59082;50.658;4.608;2024-01-11T05:56:32;18.10;;;8.97;;
71296;SDS011;59082;50.658;4.608;2024-01-11T05:58:57;19.93;;;10.03;;
71296;SDS011;59082;50.658;4.608;2024-01-11T06:01:24;8.77;;;4.18;;
71296;SDS011;59082;50.658;4.608;2024-01-11T06:03:49;17.07;;;10.03;;
71296;SDS011;59082;50.658;4.608;2024-01-11T06:06:14;13.37;;;10.87;;
71296;SDS011;59082;50.658;4.608;2024-01-11T06:08:40;13.33;;;9.53;;
71296;SDS011;59082;50.658;4.608;2024-01-11T06:11:07;14.68;;;8.35;;
71296;SDS011;59082;50.658;4.608;2024-01-11T06:13:32;17.07;;;10.90;;
71296;SDS011;59082;50.658;4.608;2024-01-11T06:15:58;17.37;;;10.77;;
71296;SDS011;59082;50.658;4.608;2024-01-11T06:18:23;22.20;;;11.70;;
71296;SDS011;59082;50.658;4.608;2024-01-11T06:20:48;22.00;;;10.90;;
71296;SDS011;59082;50.658;4.608;2024-01-11T06:23:14;17.85;;;10.68;;
71296;SDS011;59082;50.658;4.608;2024-01-11T06:25:39;17.05;;;9.02;;
71296;SDS011;59082;50.658;4.608;2024-01-11T06:28:05;21.40;;;9.93;;
71296;SDS011;59082;50.658;4.608;2024-01-11T06:30:32;16.50;;;10.02;;
71296;SDS011;59082;50.658;4.608;2024-01-11T06:32:57;19.43;;;11.47;;
71296;SDS011;59082;50.658;4.608;2024-01-11T06:35:22;18.07;;;12.27;;
71296;SDS011;59082;50.658;4.608;2024-01-11T06:37:48;18.13;;;9.73;;
71296;SDS011;59082;50.658;4.608;2024-01-11T06:40:14;17.50;;;10.13;;
71296;SDS011;59082;50.658;4.608;2024-01-11T06:42:39;25.60;;;11.77;;
71296;SDS011;59082;50.658;4.608;2024-01-11T06:45:05;18.07;;;13.30;;
71296;SDS011;59082;50.658;4.608;2024-01-11T06:47:30;16.48;;;11.45;;
71296;SDS011;59082;50.658;4.608;2024-01-11T06:49:56;22.60;;;11.13;;
71296;SDS011;59082;50.658;4.608;2024-01-11T06:52:22;18.02;;;11.82;;
71296;SDS011;59082;50.658;4.608;2024-01-11T06:54:48;12.73;;;9.87;;
71296;SDS011;59082;50.658;4.608;2024-01-11T06:57:13;21.40;;;12.68;;
71296;SDS011;59082;50.658;4.608;2024-01-11T06:59:39;15.73;;;9.83;;
71296;SDS011;59082;50.658;4.608;2024-01-11T07:02:04;17.40;;;10.93;;
71296;SDS011;59082;50.658;4.608;2024-01-11T07:04:29;17.63;;;11.53;;
71296;SDS011;59082;50.658;4.608;2024-01-11T07:06:55;16.42;;;10.68;;
71296;SDS011;59082;50.658;4.608;2024-01-11T07:09:20;21.80;;;12.10;;
71296;SDS011;59082;50.658;4.608;2024-01-11T07:11:46;12.90;;;9.60;;
71296;SDS011;59082;50.658;4.608;2024-01-11T07:14:11;15.50;;;10.53;;
71296;SDS011;59082;50.658;4.608;2024-01-11T07:16:39;19.08;;;12.40;;
71296;SDS011;59082;50.658;4.608;2024-01-11T07:19:04;18.70;;;11.70;;
71296;SDS011;59082;50.658;4.608;2024-01-11T07:21:29;15.85;;;11.40;;
71296;SDS011;59082;50.658;4.608;2024-01-11T07:23:57;21.53;;;12.13;;
71296;SDS011;59082;50.658;4.608;2024-01-11T07:26:22;16.60;;;10.45;;
71296;SDS011;59082;50.658;4.608;2024-01-11T07:28:49;17.45;;;11.90;;
71296;SDS011;59082;50.658;4.608;2024-01-11T07:31:14;14.30;;;10.40;;
71296;SDS011;59082;50.658;4.608;2024-01-11T07:33:39;14.23;;;11.30;;
71296;SDS011;59082;50.658;4.608;2024-01-11T07:36:05;13.52;;;11.35;;
71296;SDS011;59082;50.658;4.608;2024-01-11T07:38:31;19.80;;;9.60;;
71296;SDS011;59082;50.658;4.608;2024-01-11T07:40:56;16.43;;;11.10;;
71296;SDS011;59082;50.658;4.608;2024-01-11T07:43:21;18.52;;;11.40;;
71296;SDS011;59082;50.658;4.608;2024-01-11T07:45:47;15.07;;;9.23;;
71296;SDS011;59082;50.658;4.608;2024-01-11T07:48:12;16.80;;;12.40;;
71296;SDS011;59082;50.658;4.608;2024-01-11T07:50:38;18.20;;;11.37;;
71296;SDS011;59082;50.658;4.608;2024-01-11T07:53:03;17.38;;;11.57;;
71296;SDS011;59082;50.658;4.608;2024-01-11T07:55:30;19.67;;;10.67;;
71296;SDS011;59082;50.658;4.608;2024-01-11T07:57:56;18.83;;;11.32;;
71296;SDS011;59082;50.658;4.608;2024-01-11T08:00:21;24.50;;;11.13;;
71296;SDS011;59082;50.658;4.608;2024-01-11T08:02:48;17.80;;;12.43;;
71296;SDS011;59082;50.658;4.608;2024-01-11T08:05:13;17.27;;;10.33;;
71296;SDS011;59082;50.658;4.608;2024-01-11T08:07:38;49.67;;;32.85;;
71296;SDS011;59082;50.658;4.608;2024-01-11T08:10:04;17.90;;;10.53;;
71296;SDS011;59082;50.658;4.608;2024-01-11T08:12:29;22.07;;;13.60;;
71296;SDS011;59082;50.658;4.608;2024-01-11T08:14:55;26.25;;;15.02;;
71296;SDS011;59082;50.658;4.608;2024-01-11T08:17:21;22.60;;;11.60;;
71296;SDS011;59082;50.658;4.608;2024-01-11T08:19:46;14.93;;;11.27;;
71296;SDS011;59082;50.658;4.608;2024-01-11T08:22:11;25.70;;;14.07;;
71296;SDS011;59082;50.658;4.608;2024-01-11T08:24:37;24.73;;;15.17;;
71296;SDS011;59082;50.658;4.608;2024-01-11T08:27:03;24.40;;;15.23;;
71296;SDS011;59082;50.658;4.608;2024-01-11T08:29:29;33.15;;;18.40;;
71296;SDS011;59082;50.658;4.608;2024-01-11T08:31:54;31.05;;;19.02;;
71296;SDS011;59082;50.658;4.608;2024-01-11T08:34:20;40.72;;;24.73;;
71296;SDS011;59082;50.658;4.608;2024-01-11T08:36:45;35.90;;;19.40;;
71296;SDS011;59082;50.658;4.608;2024-01-11T08:39:11;30.00;;;15.77;;
71296;SDS011;59082;50.658;4.608;2024-01-11T08:41:38;33.70;;;17.95;;
71296;SDS011;59082;50.658;4.608;2024-01-11T08:44:03;26.03;;;15.73;;
71296;SDS011;59082;50.658;4.608;2024-01-11T08:46:31;24.08;;;15.77;;
71296;SDS011;59082;50.658;4.608;2024-01-11T08:48:58;31.15;;;18.75;;
71296;SDS011;59082;50.658;4.608;2024-01-11T08:51:23;21.23;;;15.43;;
71296;SDS011;59082;50.658;4.608;2024-01-11T08:53:49;29.50;;;15.65;;
71296;SDS011;59082;50.658;4.608;2024-01-11T08:56:14;21.25;;;15.48;;
71296;SDS011;59082;50.658;4.608;2024-01-11T08:58:41;31.73;;;17.40;;
71296;SDS011;59082;50.658;4.608;2024-01-11T09:01:07;24.58;;;14.32;;
71296;SDS011;59082;50.658;4.608;2024-01-11T09:03:35;24.35;;;14.02;;
71296;SDS011;59082;50.658;4.608;2024-01-11T09:06:02;23.60;;;15.03;;
71296;SDS011;59082;50.658;4.608;2024-01-11T09:08:27;23.88;;;13.50;;
71296;SDS011;59082;50.658;4.608;2024-01-11T09:10:52;23.13;;;12.77;;
71296;SDS011;59082;50.658;4.608;2024-01-11T09:13:18;25.35;;;16.52;;
71296;SDS011;59082;50.658;4.608;2024-01-11T09:15:43;21.23;;;13.93;;
71296;SDS011;59082;50.658;4.608;2024-01-11T09:18:09;26.90;;;14.30;;
71296;SDS011;59082;50.658;4.608;2024-01-11T09:20:35;28.43;;;14.93;;
71296;SDS011;59082;50.658;4.608;2024-01-11T09:23:00;24.25;;;15.60;;
71296;SDS011;59082;50.658;4.608;2024-01-11T09:25:28;25.40;;;14.68;;
71296;SDS011;59082;50.658;4.608;2024-01-11T09:27:54;33.13;;;21.37;;
71296;SDS011;59082;50.658;4.608;2024-01-11T09:30:19;28.47;;;19.63;;
71296;SDS011;59082;50.658;4.608;2024-01-11T09:32:44;27.20;;;17.07;;
71296;SDS011;59082;50.658;4.608;2024-01-11T09:35:10;25.73;;;15.70;;
71296;SDS011;59082;50.658;4.608;2024-01-11T09:37:36;20.33;;;13.77;;
71296;SDS011;59082;50.658;4.608;2024-01-11T09:40:01;24.97;;;16.33;;
71296;SDS011;59082;50.658;4.608;2024-01-11T09:42:27;31.90;;;16.87;;
71296;SDS011;59082;50.658;4.608;2024-01-11T09:44:53;26.27;;;16.92;;
71296;SDS011;59082;50.658;4.608;2024-01-11T09:47:19;31.70;;;18.38;;
71296;SDS011;59082;50.658;4.608;2024-01-11T09:49:46;24.08;;;13.43;;
71296;SDS011;59082;50.658;4.608;2024-01-11T09:52:12;29.20;;;19.10;;
71296;SDS011;59082;50.658;4.608;2024-01-11T09:54:40;27.10;;;16.70;;
71296;SDS011;59082;50.658;4.608;2024-01-11T09:57:06;23.75;;;16.02;;
71296;SDS011;59082;50.658;4.608;2024-01-11T09:59:33;34.33;;;21.73;;
71296;SDS011;59082;50.658;4.608;2024-01-11T10:01:59;33.97;;;21.52;;
71296;SDS011;59082;50.658;4.608;2024-01-11T10:04:25;30.27;;;18.55;;
71296;SDS011;59082;50.658;4.608;2024-01-11T10:06:51;31.67;;;17.27;;
71296;SDS011;59082;50.658;4.608;2024-01-11T10:09:17;29.77;;;17.17;;
71296;SDS011;59082;50.658;4.608;2024-01-11T10:11:42;33.17;;;18.45;;
71296;SDS011;59082;50.658;4.608;2024-01-11T10:14:07;29.45;;;19.77;;
71296;SDS011;59082;50.658;4.608;2024-01-11T10:16:33;31.30;;;19.23;;
71296;SDS011;59082;50.658;4.608;2024-01-11T10:18:59;32.83;;;20.50;;
71296;SDS011;59082;50.658;4.608;2024-01-11T10:21:25;30.80;;;18.57;;
71296;SDS011;59082;50.658;4.608;2024-01-11T10:23:51;31.52;;;20.35;;
71296;SDS011;59082;50.658;4.608;2024-01-11T10:26:17;35.00;;;19.70;;
71296;SDS011;59082;50.658;4.608;2024-01-11T10:28:44;32.70;;;18.90;;
71296;SDS011;59082;50.658;4.608;2024-01-11T10:31:10;32.75;;;18.50;;
71296;SDS011;59082;50.658;4.608;2024-01-11T10:33:35;30.90;;;18.37;;
71296;SDS011;59082;50.658;4.608;2024-01-11T10:36:01;34.30;;;20.13;;
71296;SDS011;59082;50.658;4.608;2024-01-11T10:38:26;33.60;;;18.98;;
71296;SDS011;59082;50.658;4.608;2024-01-11T10:40:55;30.57;;;16.80;;
71296;SDS011;59082;50.658;4.608;2024-01-11T10:43:21;31.10;;;16.17;;
71296;SDS011;59082;50.658;4.608;2024-01-11T10:45:48;32.50;;;18.13;;
71296;SDS011;59082;50.658;4.608;2024-01-11T10:48:14;30.67;;;17.92;;
71296;SDS011;59082;50.658;4.608;2024-01-11T10:50:43;31.70;;;17.13;;
71296;SDS011;59082;50.658;4.608;2024-01-11T10:53:16;32.13;;;17.88;;
71296;SDS011;59082;50.658;4.608;2024-01-11T10:55:45;29.88;;;18.27;;
71296;SDS011;59082;50.658;4.608;2024-01-11T10:58:11;36.20;;;18.42;;
71296;SDS011;59082;50.658;4.608;2024-01-11T11:00:37;30.42;;;17.98;;
71296;SDS011;59082;50.658;4.608;2024-01-11T11:03:04;36.27;;;17.53;;
71296;SDS011;59082;50.658;4.608;2024-01-11T11:05:30;30.23;;;16.88;;
71296;SDS011;59082;50.658;4.608;2024-01-11T11:07:56;29.27;;;16.88;;
71296;SDS011;59082;50.658;4.608;2024-01-11T11:10:21;28.38;;;17.70;;
71296;SDS011;59082;50.658;4.608;2024-01-11T11:12:47;28.80;;;16.67;;
71296;SDS011;59082;50.658;4.608;2024-01-11T11:15:13;33.67;;;17.98;;
71296;SDS011;59082;50.658;4.608;2024-01-11T11:17:40;30.07;;;17.97;;
71296;SDS011;59082;50.658;4.608;2024-01-11T11:20:06;32.83;;;17.05;;
71296;SDS011;59082;50.658;4.608;2024-01-11T11:22:36;29.17;;;18.52;;
71296;SDS011;59082;50.658;4.608;2024-01-11T11:25:08;23.50;;;13.35;;
71296;SDS011;59082;50.658;4.608;2024-01-11T11:27:34;28.65;;;16.95;;
71296;SDS011;59082;50.658;4.608;2024-01-11T11:29:59;29.20;;;17.17;;
71296;SDS011;59082;50.658;4.608;2024-01-11T11:35:25;24.48;;;14.20;;
71296;SDS011;59082;50.658;4.608;2024-01-11T11:37:57;29.30;;;18.23;;
71296;SDS011;59082;50.658;4.608;2024-01-11T11:40:32;30.65;;;16.20;;
71296;SDS011;59082;50.658;4.608;2024-01-11T11:43:00;28.40;;;16.48;;
71296;SDS011;59082;50.658;4.608;2024-01-11T11:45:26;25.47;;;15.70;;
71296;SDS011;59082;50.658;4.608;2024-01-11T11:47:51;29.52;;;17.55;;
71296;SDS011;59082;50.658;4.608;2024-01-11T11:50:17;35.27;;;19.63;;
71296;SDS011;59082;50.658;4.608;2024-01-11T11:52:46;29.42;;;16.85;;
71296;SDS011;59082;50.658;4.608;2024-01-11T11:55:18;29.17;;;18.37;;
71296;SDS011;59082;50.658;4.608;2024-01-11T11:57:44;24.40;;;15.32;;
71296;SDS011;59082;50.658;4.608;2024-01-11T12:00:10;36.33;;;18.45;;
71296;SDS011;59082;50.658;4.608;2024-01-11T12:02:36;37.40;;;18.13;;
71296;SDS011;59082;50.658;4.608;2024-01-11T12:05:01;32.42;;;17.48;;
71296;SDS011;59082;50.658;4.608;2024-01-11T12:07:29;29.43;;;17.60;;
71296;SDS011;59082;50.658;4.608;2024-01-11T12:09:54;22.92;;;15.43;;
71296;SDS011;59082;50.658;4.608;2024-01-11T12:12:19;29.17;;;17.73;;
71296;SDS011;59082;50.658;4.608;2024-01-11T12:14:46;29.15;;;17.27;;
71296;SDS011;59082;50.658;4.608;2024-01-11T12:17:12;32.43;;;18.83;;
71296;SDS011;59082;50.658;4.608;2024-01-11T12:19:38;34.17;;;17.75;;
71296;SDS011;59082;50.658;4.608;2024-01-11T12:22:03;30.87;;;17.03;;
71296;SDS011;59082;50.658;4.608;2024-01-11T12:24:29;33.40;;;16.87;;
71296;SDS011;59082;50.658;4.608;2024-01-11T12:26:56;27.70;;;16.70;;
71296;SDS011;59082;50.658;4.608;2024-01-11T12:29:22;29.00;;;17.08;;
71296;SDS011;59082;50.658;4.608;2024-01-11T12:31:48;32.40;;;18.27;;
71296;SDS011;59082;50.658;4.608;2024-01-11T12:34:13;31.13;;;16.57;;
71296;SDS011;59082;50.658;4.608;2024-01-11T12:36:40;31.55;;;18.90;;
71296;SDS011;59082;50.658;4.608;2024-01-11T12:39:05;25.55;;;14.52;;
71296;SDS011;59082;50.658;4.608;2024-01-11T12:41:31;25.93;;;15.20;;
71296;SDS011;59082;50.658;4.608;2024-01-11T12:43:57;30.23;;;18.75;;
71296;SDS011;59082;50.658;4.608;2024-01-11T12:46:23;28.97;;;19.33;;
71296;SDS011;59082;50.658;4.608;2024-01-11T12:48:48;28.65;;;19.50;;
71296;SDS011;59082;50.658;4.608;2024-01-11T12:51:15;21.45;;;14.32;;
71296;SDS011;59082;50.658;4.608;2024-01-11T12:53:41;24.37;;;16.40;;
71296;SDS011;59082;50.658;4.608;2024-01-11T12:56:07;32.03;;;18.13;;
71296;SDS011;59082;50.658;4.608;2024-01-11T12:58:36;26.65;;;15.60;;
71296;SDS011;59082;50.658;4.608;2024-01-11T13:01:01;34.05;;;16.95;;
71296;SDS011;59082;50.658;4.608;2024-01-11T13:03:28;33.08;;;17.90;;
71296;SDS011;59082;50.658;4.608;2024-01-11T13:05:53;28.27;;;16.90;;
71296;SDS011;59082;50.658;4.608;2024-01-11T13:08:19;26.30;;;14.97;;
71296;SDS011;59082;50.658;4.608;2024-01-11T13:10:44;29.07;;;19.00;;
71296;SDS011;59082;50.658;4.608;2024-01-11T13:13:10;29.45;;;16.83;;
71296;SDS011;59082;50.658;4.608;2024-01-11T13:15:35;25.03;;;14.37;;
71296;SDS011;59082;50.658;4.608;2024-01-11T13:18:04;25.25;;;15.45;;
71296;SDS011;59082;50.658;4.608;2024-01-11T13:20:29;26.83;;;15.40;;
71296;SDS011;59082;50.658;4.608;2024-01-11T13:23:11;25.67;;;15.63;;
71296;SDS011;59082;50.658;4.608;2024-01-11T13:25:37;31.70;;;17.17;;
71296;SDS011;59082;50.658;4.608;2024-01-11T13:28:02;25.63;;;15.20;;
71296;SDS011;59082;50.658;4.608;2024-01-11T13:30:28;25.58;;;14.82;;
71296;SDS011;59082;50.658;4.608;2024-01-11T13:32:53;27.00;;;17.07;;
71296;SDS011;59082;50.658;4.608;2024-01-11T13:35:18;23.13;;;14.30;;
71296;SDS011;59082;50.658;4.608;2024-01-11T13:37:45;25.50;;;13.10;;
71296;SDS011;59082;50.658;4.608;2024-01-11T13:40:10;22.97;;;14.47;;
71296;SDS011;59082;50.658;4.608;2024-01-11T13:42:38;25.02;;;14.45;;
71296;SDS011;59082;50.658;4.608;2024-01-11T13:45:03;22.93;;;14.23;;
71296;SDS011;59082;50.658;4.608;2024-01-11T13:47:29;21.90;;;13.77;;
71296;SDS011;59082;50.658;4.608;2024-01-11T13:49:54;28.60;;;14.47;;
71296;SDS011;59082;50.658;4.608;2024-01-11T13:52:19;22.90;;;13.33;;
71296;SDS011;59082;50.658;4.608;2024-01-11T13:54:45;24.60;;;14.38;;
71296;SDS011;59082;50.658;4.608;2024-01-11T13:57:10;26.67;;;15.23;;
71296;SDS011;59082;50.658;4.608;2024-01-11T13:59:36;25.80;;;15.13;;
71296;SDS011;59082;50.658;4.608;2024-01-11T14:02:01;23.97;;;14.03;;
71296;SDS011;59082;50.658;4.608;2024-01-11T14:04:27;25.58;;;14.82;;
71296;SDS011;59082;50.658;4.608;2024-01-11T14:06:52;25.47;;;14.00;;
71296;SDS011;59082;50.658;4.608;2024-01-11T14:09:17;24.40;;;14.70;;
71296;SDS011;59082;50.658;4.608;2024-01-11T14:11:43;29.33;;;16.77;;
71296;SDS011;59082;50.658;4.608;2024-01-11T14:14:09;21.20;;;13.18;;
71296;SDS011;59082;50.658;4.608;2024-01-11T14:16:35;21.13;;;12.27;;
71296;SDS011;59082;50.658;4.608;2024-01-11T14:19:01;18.60;;;13.05;;
71296;SDS011;59082;50.658;4.608;2024-01-11T14:21:26;26.03;;;13.80;;